sensor_id;sensor_type;location;lat;lon;timestamp;pressure;altitude;pressure_sealevel;temperature;humidity
16016;BME280;8112;53.592;10.184;2023-02-28T00:04:21;102828.00;;;2.33;100.00
16016;BME280;8112;53.592;10.184;2023-02-28T00:09:23;102821.06;;;2.36;100.00
16016;BME280;8112;53.592;10.184;2023-02-28T00:14:24;102825.56;;;2.56;100.00
16016;BME280;8112;53.592;10.184;2023-02-28T00:19:27;102829.13;;;2.61;100.00
16016;BME280;8112;53.592;10.184;2023-02-28T00:24:29;102836.03;;;2.59;100.00
16016;BME280;8112;53.592;10.184;2023-02-28T00:29:31;102826.41;;;2.50;100.00
16016;BME280;8112;53.592;10.184;2023-02-28T00:34:34;102828.03;;;2.39;100.00
16016;BME280;8112;53.592;10.184;2023-02-28T00:39:38;102829.03;;;2.53;100.00
16016;BME280;8112;53.592;10.184;2023-02-28T00:44:40;102823.78;;;2.49;100.00
16016;BME280;8112;53.592;10.184;2023-02-28T00:49:43;102834.22;;;2.47;100.00
16016;BME280;8112;53.592;10.184;2023-02-28T00:54:45;102835.78;;;2.31;100.00
16016;BME280;8112;53.592;10.184;2023-02-28T00:59:48;102832.06;;;2.06;100.00
16016;BME280;8112;53.592;10.184;2023-02-28T01:04:51;102845.72;;;1.84;100.00
16016;BME280;8112;53.592;10.184;2023-02-28T01:09:54;102841.91;;;1.56;100.00
16016;BME280;8112;53.592;10.184;2023-02-28T01:14:55;102853.16;;;1.56;100.00
16016;BME280;8112;53.592;10.184;2023-02-28T01:19:58;102846.19;;;1.54;100.00
16016;BME280;8112;53.592;10.184;2023-02-28T01:25:00;102855.97;;;1.72;100.00
16016;BME280;8112;53.592;10.184;2023-02-28T01:30:02;102858.66;;;1.80;100.00
16016;BME280;8112;53.592;10.184;2023-02-28T01:35:06;102858.50;;;1.66;100.00
16016;BME280;8112;53.592;10.184;2023-02-28T01:40:08;102853.34;;;1.74;100.00
16016;BME280;8112;53.592;10.184;2023-02-28T01:45:20;102852.69;;;1.89;100.00
16016;BME280;8112;53.592;10.184;2023-02-28T01:50:27;102840.59;;;1.94;100.00
16016;BME280;8112;53.592;10.184;2023-02-28T01:55:30;102847.38;;;1.79;100.00
16016;BME280;8112;53.592;10.184;2023-02-28T02:00:32;102846.28;;;1.60;100.00
16016;BME280;8112;53.592;10.184;2023-02-28T02:05:37;102839.22;;;1.50;100.00
16016;BME280;8112;53.592;10.184;2023-02-28T02:10:42;102847.69;;;1.36;100.00
16016;BME280;8112;53.592;10.184;2023-02-28T02:15:52;102838.97;;;1.31;100.00
16016;BME280;8112;53.592;10.184;2023-02-28T02:21:20;102834.38;;;1.11;100.00
16016;BME280;8112;53.592;10.184;2023-02-28T02:26:48;102841.16;;;1.02;100.00
16016;BME280;8112;53.592;10.184;2023-02-28T02:32:20;102835.63;;;0.81;100.00
16016;BME280;8112;53.592;10.184;2023-02-28T02:37:36;102832.44;;;0.44;100.00
16016;BME280;8112;53.592;10.184;2023-02-28T02:42:46;102828.97;;;0.44;100.00
16016;BME280;8112;53.592;10.184;2023-02-28T02:47:51;102841.09;;;0.45;100.00
16016;BME280;8112;53.592;10.184;2023-02-28T02:52:57;102836.59;;;0.34;100.00
16016;BME280;8112;53.592;10.184;2023-02-28T02:58:04;102839.88;;;0.24;100.00
16016;BME280;8112;53.592;10.184;2023-02-28T03:03:09;102832.91;;;0.20;100.00
16016;BME280;8112;53.592;10.184;2023-02-28T03:08:14;102836.34;;;0.19;100.00
16016;BME280;8112;53.592;10.184;2023-02-28T03:13:32;102835.44;;;0.18;100.00
16016;BME280;8112;53.592;10.184;2023-02-28T03:18:44;102837.94;;;0.12;100.00
16016;BME280;8112;53.592;10.184;2023-02-28T03:23:55;102842.97;;;0.04;100.00
16016;BME280;8112;53.592;10.184;2023-02-28T03:29:03;102842.63;;;-0.15;100.00
16016;BME280;8112;53.592;10.184;2023-02-28T03:34:08;102844.47;;;-0.07;100.00
16016;BME280;8112;53.592;10.184;2023-02-28T03:39:15;102844.44;;;-0.10;100.00
16016;BME280;8112;53.592;10.184;2023-02-28T03:44:22;102849.50;;;-0.17;100.00
16016;BME280;8112;53.592;10.184;2023-02-28T03:49:30;102852.63;;;-0.33;100.00
16016;BME280;8112;53.592;10.184;2023-02-28T03:54:39;102850.53;;;-0.50;100.00
16016;BME280;8112;53.592;10.184;2023-02-28T03:59:44;102848.13;;;-0.40;100.00
16016;BME280;8112;53.592;10.184;2023-02-28T04:04:47;102853.47;;;-0.34;100.00
16016;BME280;8112;53.592;10.184;2023-02-28T04:09:51;102849.13;;;-0.35;100.00
16016;BME280;8112;53.592;10.184;2023-02-28T04:14:53;102850.78;;;-0.37;100.00
16016;BME280;8112;53.592;10.184;2023-02-28T04:19:55;102854.66;;;-0.60;100.00
16016;BME280;8112;53.592;10.184;2023-02-28T04:24:59;102856.66;;;-0.84;100.00
16016;BME280;8112;53.592;10.184;2023-02-28T04:30:00;102851.72;;;-0.74;100.00
16016;BME280;8112;53.592;10.184;2023-02-28T04:35:02;102853.41;;;-0.76;100.00
16016;BME280;8112;53.592;10.184;2023-02-28T04:40:07;102858.16;;;-0.94;100.00
16016;BME280;8112;53.592;10.184;2023-02-28T04:45:09;102859.88;;;-1.32;100.00
16016;BME280;8112;53.592;10.184;2023-02-28T04:50:11;102864.84;;;-1.41;100.00
16016;BME280;8112;53.592;10.184;2023-02-28T04:55:14;102858.56;;;-1.16;100.00
16016;BME280;8112;53.592;10.184;2023-02-28T05:00:17;102856.69;;;-1.21;100.00
16016;BME280;8112;53.592;10.184;2023-02-28T05:05:18;102865.09;;;-1.30;100.00
16016;BME280;8112;53.592;10.184;2023-02-28T05:10:22;102863.47;;;-1.26;100.00
16016;BME280;8112;53.592;10.184;2023-02-28T05:15:24;102874.34;;;-1.38;100.00
16016;BME280;8112;53.592;10.184;2023-02-28T05:20:26;102871.44;;;-1.17;100.00
16016;BME280;8112;53.592;10.184;2023-02-28T05:25:29;102873.56;;;-1.01;100.00
16016;BME280;8112;53.592;10.184;2023-02-28T05:30:31;102878.88;;;-0.94;100.00
16016;BME280;8112;53.592;10.184;2023-02-28T05:35:33;102877.84;;;-1.01;100.00
16016;BME280;8112;53.592;10.184;2023-02-28T05:40:38;102874.75;;;-1.23;100.00
16016;BME280;8112;53.592;10.184;2023-02-28T05:45:39;102873.63;;;-1.34;100.00
16016;BME280;8112;53.592;10.184;2023-02-28T05:50:41;102884.19;;;-1.25;100.00
16016;BME280;8112;53.592;10.184;2023-02-28T05:55:46;102884.38;;;-1.19;100.00
16016;BME280;8112;53.592;10.184;2023-02-28T06:00:48;102890.47;;;-1.15;100.00
16016;BME280;8112;53.592;10.184;2023-02-28T06:05:50;102889.94;;;-1.37;100.00
16016;BME280;8112;53.592;10.184;2023-02-28T06:10:53;102895.53;;;-1.20;100.00
16016;BME280;8112;53.592;10.184;2023-02-28T06:15:55;102898.94;;;-1.21;100.00
16016;BME280;8112;53.592;10.184;2023-02-28T06:20:56;102896.00;;;-1.35;100.00
16016;BME280;8112;53.592;10.184;2023-02-28T06:26:00;102894.84;;;-1.12;100.00
16016;BME280;8112;53.592;10.184;2023-02-28T06:31:06;102900.50;;;-0.92;100.00
16016;BME280;8112;53.592;10.184;2023-02-28T06:36:09;102903.53;;;-1.10;100.00
16016;BME280;8112;53.592;10.184;2023-02-28T06:41:13;102908.31;;;-1.26;100.00
16016;BME280;8112;53.592;10.184;2023-02-28T06:46:14;102908.25;;;-0.94;100.00
16016;BME280;8112;53.592;10.184;2023-02-28T06:51:18;102914.09;;;-0.64;100.00
16016;BME280;8112;53.592;10.184;2023-02-28T06:56:21;102919.00;;;-0.38;100.00
16016;BME280;8112;53.592;10.184;2023-02-28T07:01:23;102913.50;;;-0.12;100.00
16016;BME280;8112;53.592;10.184;2023-02-28T07:06:26;102920.09;;;0.14;100.00
16016;BME280;8112;53.592;10.184;2023-02-28T07:11:29;102914.50;;;0.39;100.00
16016;BME280;8112;53.592;10.184;2023-02-28T07:16:31;102917.44;;;0.56;100.00
16016;BME280;8112;53.592;10.184;2023-02-28T07:21:32;102918.31;;;0.58;100.00
16016;BME280;8112;53.592;10.184;2023-02-28T07:26:36;102916.00;;;0.75;100.00
16016;BME280;8112;53.592;10.184;2023-02-28T07:31:38;102912.69;;;0.84;100.00
16016;BME280;8112;53.592;10.184;2023-02-28T07:36:39;102914.78;;;1.07;100.00
16016;BME280;8112;53.592;10.184;2023-02-28T07:41:42;102916.81;;;1.26;100.00
16016;BME280;8112;53.592;10.184;2023-02-28T07:46:44;102924.16;;;1.52;100.00
16016;BME280;8112;53.592;10.184;2023-02-28T07:51:46;102925.31;;;1.76;100.00
16016;BME280;8112;53.592;10.184;2023-02-28T07:56:49;102919.63;;;2.07;100.00
16016;BME280;8112;53.592;10.184;2023-02-28T08:01:50;102932.88;;;2.27;100.00
16016;BME280;8112;53.592;10.184;2023-02-28T08:06:52;102931.09;;;2.20;100.00
16016;BME280;8112;53.592;10.184;2023-02-28T08:11:55;102927.44;;;2.05;100.00
16016;BME280;8112;53.592;10.184;2023-02-28T08:16:57;102932.75;;;2.13;100.00
16016;BME280;8112;53.592;10.184;2023-02-28T08:21:59;102935.44;;;2.22;100.00
16016;BME280;8112;53.592;10.184;2023-02-28T08:27:02;102933.06;;;2.42;100.00
16016;BME280;8112;53.592;10.184;2023-02-28T08:32:04;102927.06;;;2.50;100.00
16016;BME280;8112;53.592;10.184;2023-02-28T08:37:06;102930.81;;;2.80;100.00
16016;BME280;8112;53.592;10.184;2023-02-28T08:42:09;102931.91;;;3.07;100.00
16016;BME280;8112;53.592;10.184;2023-02-28T08:47:10;102927.63;;;3.12;100.00
16016;BME280;8112;53.592;10.184;2023-02-28T08:52:12;102935.44;;;3.12;100.00
16016;BME280;8112;53.592;10.184;2023-02-28T08:57:15;102936.25;;;3.11;100.00
16016;BME280;8112;53.592;10.184;2023-02-28T09:02:17;102934.78;;;3.47;100.00
16016;BME280;8112;53.592;10.184;2023-02-28T09:07:19;102938.38;;;3.63;100.00
16016;BME280;8112;53.592;10.184;2023-02-28T09:12:23;102938.41;;;3.73;100.00
16016;BME280;8112;53.592;10.184;2023-02-28T09:17:25;102933.25;;;3.85;100.00
16016;BME280;8112;53.592;10.184;2023-02-28T09:22:26;102946.41;;;4.07;100.00
16016;BME280;8112;53.592;10.184;2023-02-28T09:27:29;102945.56;;;4.16;100.00
16016;BME280;8112;53.592;10.184;2023-02-28T09:32:31;102945.59;;;4.30;100.00
16016;BME280;8112;53.592;10.184;2023-02-28T09:37:32;102943.00;;;4.31;100.00
16016;BME280;8112;53.592;10.184;2023-02-28T09:42:35;102945.66;;;4.40;100.00
16016;BME280;8112;53.592;10.184;2023-02-28T09:47:42;102947.41;;;4.49;100.00
16016;BME280;8112;53.592;10.184;2023-02-28T09:52:47;102959.59;;;4.49;100.00
16016;BME280;8112;53.592;10.184;2023-02-28T09:57:51;102954.41;;;4.74;100.00
16016;BME280;8112;53.592;10.184;2023-02-28T10:03:22;102946.59;;;4.83;100.00
16016;BME280;8112;53.592;10.184;2023-02-28T10:08:30;102949.19;;;4.86;100.00
16016;BME280;8112;53.592;10.184;2023-02-28T10:13:37;102945.72;;;4.99;100.00
16016;BME280;8112;53.592;10.184;2023-02-28T10:18:48;102950.09;;;5.13;100.00
16016;BME280;8112;53.592;10.184;2023-02-28T10:23:58;102950.94;;;5.13;100.00
16016;BME280;8112;53.592;10.184;2023-02-28T10:29:02;102948.31;;;5.32;100.00
16016;BME280;8112;53.592;10.184;2023-02-28T10:34:04;102940.44;;;5.46;100.00
16016;BME280;8112;53.592;10.184;2023-02-28T10:39:34;102939.56;;;5.56;100.00
16016;BME280;8112;53.592;10.184;2023-02-28T10:44:37;102935.16;;;5.62;100.00
16016;BME280;8112;53.592;10.184;2023-02-28T10:49:46;102945.59;;;5.74;100.00
16016;BME280;8112;53.592;10.184;2023-02-28T10:54:48;102941.22;;;5.85;100.00
16016;BME280;8112;53.592;10.184;2023-02-28T10:59:52;102940.25;;;6.11;100.00
16016;BME280;8112;53.592;10.184;2023-02-28T11:04:55;102939.94;;;6.67;100.00
16016;BME280;8112;53.592;10.184;2023-02-28T11:09:58;102938.53;;;7.31;100.00
16016;BME280;8112;53.592;10.184;2023-02-28T11:15:03;102942.81;;;8.16;100.00
16016;BME280;8112;53.592;10.184;2023-02-28T11:20:10;102937.94;;;8.54;100.00
16016;BME280;8112;53.592;10.184;2023-02-28T11:25:22;102929.00;;;9.65;100.00
16016;BME280;8112;53.592;10.184;2023-02-28T11:30:35;102920.16;;;10.52;100.00
16016;BME280;8112;53.592;10.184;2023-02-28T11:35:38;102921.56;;;11.35;100.00
16016;BME280;8112;53.592;10.184;2023-02-28T11:40:46;102912.22;;;11.55;100.00
16016;BME280;8112;53.592;10.184;2023-02-28T11:46:00;102910.84;;;12.33;93.62
16016;BME280;8112;53.592;10.184;2023-02-28T11:51:12;102901.25;;;13.35;88.75
16016;BME280;8112;53.592;10.184;2023-02-28T11:56:22;102896.91;;;12.82;77.50
16016;BME280;8112;53.592;10.184;2023-02-28T12:01:48;102885.19;;;11.14;70.33
16016;BME280;8112;53.592;10.184;2023-02-28T12:07:00;102884.28;;;12.08;74.47
16016;BME280;8112;53.592;10.184;2023-02-28T12:12:25;102875.31;;;13.45;68.53
16016;BME280;8112;53.592;10.184;2023-02-28T12:17:40;102871.41;;;13.56;63.84
16016;BME280;8112;53.592;10.184;2023-02-28T12:22:52;102864.28;;;13.80;63.29
16016;BME280;8112;53.592;10.184;2023-02-28T12:27:57;102860.28;;;12.43;62.45
16016;BME280;8112;53.592;10.184;2023-02-28T12:33:05;102851.19;;;13.53;60.25
16016;BME280;8112;53.592;10.184;2023-02-28T12:38:11;102842.63;;;13.92;54.55
16016;BME280;8112;53.592;10.184;2023-02-28T12:43:16;102833.78;;;13.70;55.17
16016;BME280;8112;53.592;10.184;2023-02-28T12:48:25;102823.47;;;13.62;54.25
16016;BME280;8112;53.592;10.184;2023-02-28T12:53:33;102821.59;;;13.16;54.89
16016;BME280;8112;53.592;10.184;2023-02-28T12:58:39;102811.84;;;13.42;54.00
16016;BME280;8112;53.592;10.184;2023-02-28T13:04:02;102805.84;;;13.61;50.89
16016;BME280;8112;53.592;10.184;2023-02-28T13:09:12;102798.25;;;13.75;50.82
16016;BME280;8112;53.592;10.184;2023-02-28T13:14:23;102794.06;;;12.96;52.07
16016;BME280;8112;53.592;10.184;2023-02-28T13:19:28;102783.28;;;13.03;50.42
16016;BME280;8112;53.592;10.184;2023-02-28T13:24:46;102787.28;;;12.89;46.21
16016;BME280;8112;53.592;10.184;2023-02-28T13:29:48;102771.19;;;13.19;48.69
16016;BME280;8112;53.592;10.184;2023-02-28T13:40:37;102779.91;;;12.97;49.07
16016;BME280;8112;53.592;10.184;2023-02-28T13:46:10;102782.91;;;12.88;49.75
16016;BME280;8112;53.592;10.184;2023-02-28T13:51:38;102778.94;;;13.24;49.36
16016;BME280;8112;53.592;10.184;2023-02-28T13:56:45;102781.84;;;13.65;46.76
16016;BME280;8112;53.592;10.184;2023-02-28T14:02:02;102778.72;;;14.21;48.29
16016;BME280;8112;53.592;10.184;2023-02-28T14:07:06;102783.47;;;14.56;45.48
16016;BME280;8112;53.592;10.184;2023-02-28T14:17:52;102785.47;;;14.92;48.15
16016;BME280;8112;53.592;10.184;2023-02-28T14:23:00;102787.47;;;15.82;46.37
16016;BME280;8112;53.592;10.184;2023-02-28T14:28:11;102777.28;;;15.35;46.09
16016;BME280;8112;53.592;10.184;2023-02-28T14:33:23;102778.88;;;15.01;45.53
16016;BME280;8112;53.592;10.184;2023-02-28T14:38:29;102778.09;;;15.75;40.53
16016;BME280;8112;53.592;10.184;2023-02-28T14:43:32;102787.34;;;16.22;42.77
16016;BME280;8112;53.592;10.184;2023-02-28T14:48:36;102778.16;;;16.28;42.75
16016;BME280;8112;53.592;10.184;2023-02-28T14:53:38;102784.59;;;15.68;44.78
16016;BME280;8112;53.592;10.184;2023-02-28T14:58:40;102789.84;;;13.40;45.67
16016;BME280;8112;53.592;10.184;2023-02-28T15:03:43;102782.59;;;10.69;50.15
16016;BME280;8112;53.592;10.184;2023-02-28T15:08:45;102785.56;;;8.98;53.26
16016;BME280;8112;53.592;10.184;2023-02-28T15:13:49;102782.63;;;8.15;52.87
16016;BME280;8112;53.592;10.184;2023-02-28T15:18:55;102772.56;;;7.85;56.08
16016;BME280;8112;53.592;10.184;2023-02-28T15:24:00;102768.03;;;7.32;59.26
16016;BME280;8112;53.592;10.184;2023-02-28T15:29:07;102756.91;;;7.10;61.77
16016;BME280;8112;53.592;10.184;2023-02-28T15:34:18;102762.38;;;6.91;64.04
16016;BME280;8112;53.592;10.184;2023-02-28T15:39:23;102758.09;;;6.84;67.58
16016;BME280;8112;53.592;10.184;2023-02-28T15:44:26;102754.88;;;6.54;72.53
16016;BME280;8112;53.592;10.184;2023-02-28T15:49:39;102758.63;;;6.28;75.19
16016;BME280;8112;53.592;10.184;2023-02-28T15:54:42;102748.28;;;6.14;80.78
16016;BME280;8112;53.592;10.184;2023-02-28T15:59:50;102744.84;;;6.04;81.65
16016;BME280;8112;53.592;10.184;2023-02-28T16:05:16;102743.13;;;5.94;83.19
16016;BME280;8112;53.592;10.184;2023-02-28T16:10:23;102747.56;;;5.82;85.63
16016;BME280;8112;53.592;10.184;2023-02-28T16:15:28;102745.06;;;5.64;85.56
16016;BME280;8112;53.592;10.184;2023-02-28T16:20:31;102749.44;;;5.62;87.01
16016;BME280;8112;53.592;10.184;2023-02-28T16:25:35;102765.22;;;5.43;88.64
16016;BME280;8112;53.592;10.184;2023-02-28T16:30:37;102757.44;;;5.29;91.04
16016;BME280;8112;53.592;10.184;2023-02-28T16:35:40;102760.13;;;5.09;93.21
16016;BME280;8112;53.592;10.184;2023-02-28T16:40:42;102761.06;;;4.94;94.83
16016;BME280;8112;53.592;10.184;2023-02-28T16:45:43;102759.38;;;4.71;98.56
16016;BME280;8112;53.592;10.184;2023-02-28T16:50:46;102763.69;;;4.74;100.00
16016;BME280;8112;53.592;10.184;2023-02-28T16:55:48;102768.09;;;4.53;100.00
16016;BME280;8112;53.592;10.184;2023-02-28T17:00:51;102762.00;;;4.35;100.00
16016;BME280;8112;53.592;10.184;2023-02-28T17:05:54;102777.66;;;4.12;100.00
16016;BME280;8112;53.592;10.184;2023-02-28T17:10:56;102784.59;;;3.99;100.00
16016;BME280;8112;53.592;10.184;2023-02-28T17:15:58;102799.38;;;3.91;100.00
16016;BME280;8112;53.592;10.184;2023-02-28T17:21:01;102802.81;;;3.77;100.00
16016;BME280;8112;53.592;10.184;2023-02-28T17:26:03;102795.81;;;3.59;100.00
16016;BME280;8112;53.592;10.184;2023-02-28T17:31:08;102795.78;;;3.54;100.00
16016;BME280;8112;53.592;10.184;2023-02-28T17:36:13;102804.44;;;3.46;100.00
16016;BME280;8112;53.592;10.184;2023-02-28T17:41:15;102806.13;;;3.33;100.00
16016;BME280;8112;53.592;10.184;2023-02-28T17:46:19;102806.06;;;3.20;100.00
16016;BME280;8112;53.592;10.184;2023-02-28T17:51:23;102808.63;;;3.14;100.00
16016;BME280;8112;53.592;10.184;2023-02-28T17:56:26;102809.44;;;3.04;100.00
16016;BME280;8112;53.592;10.184;2023-02-28T18:01:27;102811.97;;;2.93;100.00
16016;BME280;8112;53.592;10.184;2023-02-28T18:06:35;102813.66;;;2.83;100.00
16016;BME280;8112;53.592;10.184;2023-02-28T18:11:48;102817.97;;;2.78;100.00
16016;BME280;8112;53.592;10.184;2023-02-28T18:16:50;102821.38;;;2.69;100.00
16016;BME280;8112;53.592;10.184;2023-02-28T18:21:54;102818.44;;;2.33;100.00
16016;BME280;8112;53.592;10.184;2023-02-28T18:26:55;102825.94;;;2.01;100.00
16016;BME280;8112;53.592;10.184;2023-02-28T18:31:57;102825.06;;;2.00;100.00
16016;BME280;8112;53.592;10.184;2023-02-28T18:37:03;102825.13;;;2.06;100.00
16016;BME280;8112;53.592;10.184;2023-02-28T18:42:04;102826.00;;;2.05;100.00
16016;BME280;8112;53.592;10.184;2023-02-28T18:47:06;102830.22;;;1.97;100.00
16016;BME280;8112;53.592;10.184;2023-02-28T18:52:09;102830.69;;;1.62;100.00
16016;BME280;8112;53.592;10.184;2023-02-28T18:57:11;102820.28;;;1.62;100.00
16016;BME280;8112;53.592;10.184;2023-02-28T19:02:13;102827.34;;;1.72;100.00
16016;BME280;8112;53.592;10.184;2023-02-28T19:07:16;102823.91;;;1.73;100.00
16016;BME280;8112;53.592;10.184;2023-02-28T19:12:17;102820.44;;;1.74;100.00
16016;BME280;8112;53.592;10.184;2023-02-28T19:17:19;102826.50;;;1.73;100.00
16016;BME280;8112;53.592;10.184;2023-02-28T19:22:23;102831.66;;;1.70;100.00
16016;BME280;8112;53.592;10.184;2023-02-28T19:27:25;102829.84;;;1.63;100.00
16016;BME280;8112;53.592;10.184;2023-02-28T19:32:26;102828.75;;;1.45;100.00
16016;BME280;8112;53.592;10.184;2023-02-28T19:37:30;102841.34;;;1.14;100.00
16016;BME280;8112;53.592;10.184;2023-02-28T19:42:31;102835.94;;;1.02;100.00
16016;BME280;8112;53.592;10.184;2023-02-28T19:47:34;102840.97;;;0.91;100.00
16016;BME280;8112;53.592;10.184;2023-02-28T19:52:39;102840.53;;;0.61;100.00
16016;BME280;8112;53.592;10.184;2023-02-28T19:57:41;102837.56;;;0.41;100.00
16016;BME280;8112;53.592;10.184;2023-02-28T20:02:42;102844.56;;;0.45;100.00
16016;BME280;8112;53.592;10.184;2023-02-28T20:07:45;102837.75;;;0.52;100.00
16016;BME280;8112;53.592;10.184;2023-02-28T20:12:47;102836.91;;;0.53;100.00
16016;BME280;8112;53.592;10.184;2023-02-28T20:17:49;102837.69;;;0.47;100.00
16016;BME280;8112;53.592;10.184;2023-02-28T20:22:52;102839.25;;;0.37;100.00
16016;BME280;8112;53.592;10.184;2023-02-28T20:27:54;102838.72;;;0.57;100.00
16016;BME280;8112;53.592;10.184;2023-02-28T20:32:55;102846.16;;;0.37;100.00
16016;BME280;8112;53.592;10.184;2023-02-28T20:37:58;102834.75;;;0.27;100.00
16016;BME280;8112;53.592;10.184;2023-02-28T20:43:00;102833.22;;;0.38;100.00
16016;BME280;8112;53.592;10.184;2023-02-28T20:48:02;102837.88;;;0.58;100.00
16016;BME280;8112;53.592;10.184;2023-02-28T20:53:05;102824.00;;;0.57;100.00
16016;BME280;8112;53.592;10.184;2023-02-28T20:58:06;102817.22;;;0.13;100.00
16016;BME280;8112;53.592;10.184;2023-02-28T21:03:08;102824.50;;;-0.13;100.00
16016;BME280;8112;53.592;10.184;2023-02-28T21:08:11;102830.00;;;0.04;100.00
16016;BME280;8112;53.592;10.184;2023-02-28T21:13:14;102834.78;;;-0.18;100.00
16016;BME280;8112;53.592;10.184;2023-02-28T21:18:16;102830.66;;;-0.06;100.00
16016;BME280;8112;53.592;10.184;2023-02-28T21:23:19;102828.88;;;-0.10;100.00
16016;BME280;8112;53.592;10.184;2023-02-28T21:28:20;102833.25;;;-0.06;100.00
16016;BME280;8112;53.592;10.184;2023-02-28T21:33:22;102833.84;;;-0.20;100.00
16016;BME280;8112;53.592;10.184;2023-02-28T21:38:25;102847.22;;;-0.43;100.00
16016;BME280;8112;53.592;10.184;2023-02-28T21:43:27;102840.03;;;-0.56;100.00
16016;BME280;8112;53.592;10.184;2023-02-28T21:48:29;102847.00;;;-0.53;100.00
16016;BME280;8112;53.592;10.184;2023-02-28T21:53:35;102850.09;;;-0.29;100.00
16016;BME280;8112;53.592;10.184;2023-02-28T21:58:37;102843.94;;;-0.35;100.00
16016;BME280;8112;53.592;10.184;2023-02-28T22:03:39;102845.00;;;-0.25;100.00
16016;BME280;8112;53.592;10.184;2023-02-28T22:08:43;102833.56;;;0.09;100.00
16016;BME280;8112;53.592;10.184;2023-02-28T22:13:46;102840.38;;;0.04;100.00
16016;BME280;8112;53.592;10.184;2023-02-28T22:18:50;102837.50;;;-0.11;100.00
16016;BME280;8112;53.592;10.184;2023-02-28T22:23:53;102845.59;;;-0.37;100.00
16016;BME280;8112;53.592;10.184;2023-02-28T22:28:55;102846.44;;;-0.40;100.00
16016;BME280;8112;53.592;10.184;2023-02-28T22:33:59;102857.13;;;-0.23;100.00
16016;BME280;8112;53.592;10.184;2023-02-28T22:39:03;102853.91;;;-0.12;100.00
16016;BME280;8112;53.592;10.184;2023-02-28T22:44:05;102851.00;;;-0.28;100.00
16016;BME280;8112;53.592;10.184;2023-02-28T22:49:07;102852.13;;;-0.55;100.00
16016;BME280;8112;53.592;10.184;2023-02-28T22:54:10;102845.41;;;-0.47;100.00
16016;BME280;8112;53.592;10.184;2023-02-28T22:59:12;102851.63;;;-0.40;100.00
16016;BME280;8112;53.592;10.184;2023-02-28T23:04:14;102848.41;;;-0.69;100.00
16016;BME280;8112;53.592;10.184;2023-02-28T23:09:18;102851.88;;;-0.67;100.00
16016;BME280;8112;53.592;10.184;2023-02-28T23:14:20;102861.97;;;-0.80;100.00
16016;BME280;8112;53.592;10.184;2023-02-28T23:19:24;102854.47;;;-1.06;100.00
16016;BME280;8112;53.592;10.184;2023-02-28T23:24:30;102858.56;;;-1.16;100.00
16016;BME280;8112;53.592;10.184;2023-02-28T23:29:33;102850.16;;;-1.05;100.00
16016;BME280;8112;53.592;10.184;2023-02-28T23:34:35;102835.91;;;-0.88;100.00
16016;BME280;8112;53.592;10.184;2023-02-28T23:39:38;102831.00;;;-0.74;100.00
16016;BME280;8112;53.592;10.184;2023-02-28T23:44:40;102824.47;;;-0.58;100.00
16016;BME280;8112;53.592;10.184;2023-02-28T23:49:42;102838.38;;;-0.54;100.00
16016;BME280;8112;53.592;10.184;2023-02-28T23:54:46;102843.34;;;-0.63;100.00
16016;BME280;8112;53.592;10.184;2023-02-28T23:59:47;102843.88;;;-0.78;100.00
